sensor_id;sensor_type;location;lat;lon;timestamp;temperature;humidity
32977;DHT22;72327;50.842;4.450;2023-09-19T00:00:06;15.40;99.90
32977;DHT22;72327;50.842;4.450;2023-09-19T00:02:32;15.40;99.90
32977;DHT22;72327;50.842;4.450;2023-09-19T00:04:58;15.30;99.90
32977;DHT22;72327;50.842;4.450;2023-09-19T00:07:24;15.30;99.90
32977;DHT22;72327;50.842;4.450;2023-09-19T00:09:49;15.40;99.90
32977;DHT22;72327;50.842;4.450;2023-09-19T00:12:15;15.40;99.90
32977;DHT22;72327;50.842;4.450;2023-09-19T00:14:41;15.40;99.90
32977;DHT22;72327;50.842;4.450;2023-09-19T00:17:06;15.40;99.90
32977;DHT22;72327;50.842;4.450;2023-09-19T00:19:32;15.30;99.90
32977;DHT22;72327;50.842;4.450;2023-09-19T00:21:58;15.40;99.90
32977;DHT22;72327;50.842;4.450;2023-09-19T00:24:24;15.40;99.90
32977;DHT22;72327;50.842;4.450;2023-09-19T00:26:49;15.40;99.90
32977;DHT22;72327;50.842;4.450;2023-09-19T00:29:15;15.40;99.90
32977;DHT22;72327;50.842;4.450;2023-09-19T00:31:44;15.40;99.90
32977;DHT22;72327;50.842;4.450;2023-09-19T00:34:10;15.40;99.90
32977;DHT22;72327;50.842;4.450;2023-09-19T00:36:40;15.40;99.90
32977;DHT22;72327;50.842;4.450;2023-09-19T00:39:06;15.40;99.90
32977;DHT22;72327;50.842;4.450;2023-09-19T00:41:35;15.40;99.90
32977;DHT22;72327;50.842;4.450;2023-09-19T00:44:03;15.40;99.90
32977;DHT22;72327;50.842;4.450;2023-09-19T00:46:31;15.30;99.90
32977;DHT22;72327;50.842;4.450;2023-09-19T00:48:58;15.30;99.90
32977;DHT22;72327;50.842;4.450;2023-09-19T00:51:25;15.30;99.90
32977;DHT22;72327;50.842;4.450;2023-09-19T00:53:52;15.30;99.90
32977;DHT22;72327;50.842;4.450;2023-09-19T00:56:19;15.30;99.90
32977;DHT22;72327;50.842;4.450;2023-09-19T00:58:45;15.20;99.90
32977;DHT22;72327;50.842;4.450;2023-09-19T01:01:12;15.20;99.90
32977;DHT22;72327;50.842;4.450;2023-09-19T01:03:43;15.20;99.90
32977;DHT22;72327;50.842;4.450;2023-09-19T01:06:09;15.20;99.90
32977;DHT22;72327;50.842;4.450;2023-09-19T01:08:36;15.20;99.90
32977;DHT22;72327;50.842;4.450;2023-09-19T01:14:07;15.20;99.90
32977;DHT22;72327;50.842;4.450;2023-09-19T01:16:56;15.20;99.90
32977;DHT22;72327;50.842;4.450;2023-09-19T01:30:43;15.00;99.90
32977;DHT22;72327;50.842;4.450;2023-09-19T01:33:10;15.00;99.90
32977;DHT22;72327;50.842;4.450;2023-09-19T01:35:40;15.00;99.90
32977;DHT22;72327;50.842;4.450;2023-09-19T01:38:08;15.00;99.90
32977;DHT22;72327;50.842;4.450;2023-09-19T01:40:46;15.00;99.90
32977;DHT22;72327;50.842;4.450;2023-09-19T01:51:03;15.00;99.90
32977;DHT22;72327;50.842;4.450;2023-09-19T01:54:00;14.90;99.90
32977;DHT22;72327;50.842;4.450;2023-09-19T01:59:06;14.90;99.90
32977;DHT22;72327;50.842;4.450;2023-09-19T02:01:33;14.90;99.90
32977;DHT22;72327;50.842;4.450;2023-09-19T02:04:00;14.90;99.90
32977;DHT22;72327;50.842;4.450;2023-09-19T02:06:26;15.00;99.90
32977;DHT22;72327;50.842;4.450;2023-09-19T02:08:54;14.90;99.90
32977;DHT22;72327;50.842;4.450;2023-09-19T02:11:19;14.90;99.90
32977;DHT22;72327;50.842;4.450;2023-09-19T02:13:45;14.90;99.90
32977;DHT22;72327;50.842;4.450;2023-09-19T02:16:11;14.90;99.90
32977;DHT22;72327;50.842;4.450;2023-09-19T02:18:38;14.80;99.90
32977;DHT22;72327;50.842;4.450;2023-09-19T02:21:04;14.90;99.90
32977;DHT22;72327;50.842;4.450;2023-09-19T02:23:32;15.10;99.90
32977;DHT22;72327;50.842;4.450;2023-09-19T02:25:59;15.10;99.90
32977;DHT22;72327;50.842;4.450;2023-09-19T02:28:26;15.20;99.90
32977;DHT22;72327;50.842;4.450;2023-09-19T02:31:01;15.30;99.90
32977;DHT22;72327;50.842;4.450;2023-09-19T02:33:28;15.30;99.90
32977;DHT22;72327;50.842;4.450;2023-09-19T02:35:58;15.40;99.90
32977;DHT22;72327;50.842;4.450;2023-09-19T02:38:25;15.50;99.90
32977;DHT22;72327;50.842;4.450;2023-09-19T02:40:52;15.50;99.90
32977;DHT22;72327;50.842;4.450;2023-09-19T02:43:18;15.60;99.90
32977;DHT22;72327;50.842;4.450;2023-09-19T02:45:45;15.50;99.90
32977;DHT22;72327;50.842;4.450;2023-09-19T02:48:12;15.50;99.90
32977;DHT22;72327;50.842;4.450;2023-09-19T02:50:38;15.60;99.90
32977;DHT22;72327;50.842;4.450;2023-09-19T02:53:05;15.50;99.90
32977;DHT22;72327;50.842;4.450;2023-09-19T02:55:32;15.50;99.90
32977;DHT22;72327;50.842;4.450;2023-09-19T02:57:58;15.60;99.90
32977;DHT22;72327;50.842;4.450;2023-09-19T03:00:24;15.50;99.90
32977;DHT22;72327;50.842;4.450;2023-09-19T03:02:52;15.60;99.90
32977;DHT22;72327;50.842;4.450;2023-09-19T03:05:19;15.70;99.90
32977;DHT22;72327;50.842;4.450;2023-09-19T03:07:45;15.70;99.90
32977;DHT22;72327;50.842;4.450;2023-09-19T03:10:21;15.60;99.90
32977;DHT22;72327;50.842;4.450;2023-09-19T03:12:47;15.50;99.90
32977;DHT22;72327;50.842;4.450;2023-09-19T03:15:14;15.50;99.90
32977;DHT22;72327;50.842;4.450;2023-09-19T03:17:44;15.50;99.90
32977;DHT22;72327;50.842;4.450;2023-09-19T03:20:11;15.50;99.90
32977;DHT22;72327;50.842;4.450;2023-09-19T03:22:38;15.50;99.90
32977;DHT22;72327;50.842;4.450;2023-09-19T03:25:06;15.50;99.90
32977;DHT22;72327;50.842;4.450;2023-09-19T03:27:34;15.50;99.90
32977;DHT22;72327;50.842;4.450;2023-09-19T03:30:00;15.50;99.90
32977;DHT22;72327;50.842;4.450;2023-09-19T03:32:26;15.50;99.90
32977;DHT22;72327;50.842;4.450;2023-09-19T03:34:52;15.50;99.90
32977;DHT22;72327;50.842;4.450;2023-09-19T03:37:17;15.60;99.90
32977;DHT22;72327;50.842;4.450;2023-09-19T03:39:43;15.50;99.90
32977;DHT22;72327;50.842;4.450;2023-09-19T03:42:09;15.50;99.90
32977;DHT22;72327;50.842;4.450;2023-09-19T03:44:35;15.50;99.90
32977;DHT22;72327;50.842;4.450;2023-09-19T03:47:00;15.40;99.90
32977;DHT22;72327;50.842;4.450;2023-09-19T03:49:26;15.20;99.90
32977;DHT22;72327;50.842;4.450;2023-09-19T03:51:52;15.20;99.90
32977;DHT22;72327;50.842;4.450;2023-09-19T03:54:18;15.20;99.90
32977;DHT22;72327;50.842;4.450;2023-09-19T03:56:45;15.10;99.90
32977;DHT22;72327;50.842;4.450;2023-09-19T03:59:11;14.90;99.90
32977;DHT22;72327;50.842;4.450;2023-09-19T04:01:37;14.90;99.90
32977;DHT22;72327;50.842;4.450;2023-09-19T04:04:03;14.80;99.90
32977;DHT22;72327;50.842;4.450;2023-09-19T04:06:35;14.70;99.90
32977;DHT22;72327;50.842;4.450;2023-09-19T04:09:04;14.70;99.90
32977;DHT22;72327;50.842;4.450;2023-09-19T04:11:33;14.60;99.90
32977;DHT22;72327;50.842;4.450;2023-09-19T04:13:58;14.60;99.90
32977;DHT22;72327;50.842;4.450;2023-09-19T04:16:24;14.60;99.90
32977;DHT22;72327;50.842;4.450;2023-09-19T04:18:50;14.60;99.90
32977;DHT22;72327;50.842;4.450;2023-09-19T04:21:16;14.60;99.90
32977;DHT22;72327;50.842;4.450;2023-09-19T04:23:42;14.50;99.90
32977;DHT22;72327;50.842;4.450;2023-09-19T04:26:08;14.50;99.90
32977;DHT22;72327;50.842;4.450;2023-09-19T04:28:34;14.50;99.90
32977;DHT22;72327;50.842;4.450;2023-09-19T04:31:00;14.50;99.90
32977;DHT22;72327;50.842;4.450;2023-09-19T04:33:26;14.40;99.90
32977;DHT22;72327;50.842;4.450;2023-09-19T04:35:53;14.40;99.90
32977;DHT22;72327;50.842;4.450;2023-09-19T04:38:19;14.50;99.90
32977;DHT22;72327;50.842;4.450;2023-09-19T04:40:46;14.50;99.90
32977;DHT22;72327;50.842;4.450;2023-09-19T04:43:12;14.60;99.90
32977;DHT22;72327;50.842;4.450;2023-09-19T04:45:39;14.50;99.90
32977;DHT22;72327;50.842;4.450;2023-09-19T04:48:05;14.50;99.90
32977;DHT22;72327;50.842;4.450;2023-09-19T04:50:34;14.40;99.90
32977;DHT22;72327;50.842;4.450;2023-09-19T04:53:00;14.40;99.90
32977;DHT22;72327;50.842;4.450;2023-09-19T04:55:26;14.40;99.90
32977;DHT22;72327;50.842;4.450;2023-09-19T04:57:53;14.40;99.90
32977;DHT22;72327;50.842;4.450;2023-09-19T05:00:20;14.40;99.90
32977;DHT22;72327;50.842;4.450;2023-09-19T05:02:56;14.40;99.90
32977;DHT22;72327;50.842;4.450;2023-09-19T05:05:22;14.40;99.90
32977;DHT22;72327;50.842;4.450;2023-09-19T05:07:49;14.30;99.90
32977;DHT22;72327;50.842;4.450;2023-09-19T05:10:16;14.30;99.90
32977;DHT22;72327;50.842;4.450;2023-09-19T05:12:44;14.30;99.90
32977;DHT22;72327;50.842;4.450;2023-09-19T05:15:14;14.30;99.90
32977;DHT22;72327;50.842;4.450;2023-09-19T05:17:51;14.20;99.90
32977;DHT22;72327;50.842;4.450;2023-09-19T05:20:20;14.30;99.90
32977;DHT22;72327;50.842;4.450;2023-09-19T05:23:05;14.30;99.90
32977;DHT22;72327;50.842;4.450;2023-09-19T05:25:36;14.40;99.90
32977;DHT22;72327;50.842;4.450;2023-09-19T05:28:09;14.30;99.90
32977;DHT22;72327;50.842;4.450;2023-09-19T05:30:37;14.30;99.90
32977;DHT22;72327;50.842;4.450;2023-09-19T05:33:06;14.30;99.90
32977;DHT22;72327;50.842;4.450;2023-09-19T05:35:33;14.30;99.90
32977;DHT22;72327;50.842;4.450;2023-09-19T05:37:59;14.30;99.90
32977;DHT22;72327;50.842;4.450;2023-09-19T05:40:25;14.30;99.90
32977;DHT22;72327;50.842;4.450;2023-09-19T05:42:51;14.40;99.90
32977;DHT22;72327;50.842;4.450;2023-09-19T05:45:17;14.50;99.90
32977;DHT22;72327;50.842;4.450;2023-09-19T05:47:48;14.60;99.90
32977;DHT22;72327;50.842;4.450;2023-09-19T05:50:14;14.80;99.90
32977;DHT22;72327;50.842;4.450;2023-09-19T05:52:42;14.80;99.90
32977;DHT22;72327;50.842;4.450;2023-09-19T05:55:08;14.80;99.90
32977;DHT22;72327;50.842;4.450;2023-09-19T05:57:37;14.90;99.90
32977;DHT22;72327;50.842;4.450;2023-09-19T06:00:08;14.80;99.90
32977;DHT22;72327;50.842;4.450;2023-09-19T06:02:38;14.80;99.90
32977;DHT22;72327;50.842;4.450;2023-09-19T06:05:06;14.90;99.90
32977;DHT22;72327;50.842;4.450;2023-09-19T06:07:32;14.90;99.90
32977;DHT22;72327;50.842;4.450;2023-09-19T06:10:02;15.00;99.90
32977;DHT22;72327;50.842;4.450;2023-09-19T06:12:31;15.00;99.90
32977;DHT22;72327;50.842;4.450;2023-09-19T06:14:58;15.00;99.90
32977;DHT22;72327;50.842;4.450;2023-09-19T06:17:25;15.10;99.90
32977;DHT22;72327;50.842;4.450;2023-09-19T06:19:53;15.10;99.90
32977;DHT22;72327;50.842;4.450;2023-09-19T06:22:18;15.10;99.90
32977;DHT22;72327;50.842;4.450;2023-09-19T06:24:45;15.30;99.90
32977;DHT22;72327;50.842;4.450;2023-09-19T06:27:12;15.40;99.90
32977;DHT22;72327;50.842;4.450;2023-09-19T06:29:38;15.50;99.90
32977;DHT22;72327;50.842;4.450;2023-09-19T06:32:08;15.50;99.90
32977;DHT22;72327;50.842;4.450;2023-09-19T06:34:34;15.60;99.90
32977;DHT22;72327;50.842;4.450;2023-09-19T06:37:00;15.60;99.90
32977;DHT22;72327;50.842;4.450;2023-09-19T06:39:25;15.60;99.90
32977;DHT22;72327;50.842;4.450;2023-09-19T06:41:52;15.60;99.90
32977;DHT22;72327;50.842;4.450;2023-09-19T06:44:20;15.70;99.90
32977;DHT22;72327;50.842;4.450;2023-09-19T06:46:50;15.70;99.90
32977;DHT22;72327;50.842;4.450;2023-09-19T06:49:17;15.70;99.90
32977;DHT22;72327;50.842;4.450;2023-09-19T06:51:42;15.70;99.90
32977;DHT22;72327;50.842;4.450;2023-09-19T06:54:09;15.90;99.90
32977;DHT22;72327;50.842;4.450;2023-09-19T06:56:35;16.00;99.90
32977;DHT22;72327;50.842;4.450;2023-09-19T06:59:00;16.00;99.90
32977;DHT22;72327;50.842;4.450;2023-09-19T07:01:28;16.10;99.90
32977;DHT22;72327;50.842;4.450;2023-09-19T07:03:53;16.10;99.90
32977;DHT22;72327;50.842;4.450;2023-09-19T07:06:20;16.20;99.90
32977;DHT22;72327;50.842;4.450;2023-09-19T07:08:45;16.10;99.90
32977;DHT22;72327;50.842;4.450;2023-09-19T07:11:11;16.20;99.90
32977;DHT22;72327;50.842;4.450;2023-09-19T07:13:38;16.20;99.90
32977;DHT22;72327;50.842;4.450;2023-09-19T07:16:04;16.30;99.90
32977;DHT22;72327;50.842;4.450;2023-09-19T07:18:29;16.30;99.90
32977;DHT22;72327;50.842;4.450;2023-09-19T07:20:58;16.30;99.90
32977;DHT22;72327;50.842;4.450;2023-09-19T07:23:30;16.40;99.90
32977;DHT22;72327;50.842;4.450;2023-09-19T07:26:00;16.60;99.90
32977;DHT22;72327;50.842;4.450;2023-09-19T07:28:26;16.60;99.90
32977;DHT22;72327;50.842;4.450;2023-09-19T07:30:53;16.70;99.90
32977;DHT22;72327;50.842;4.450;2023-09-19T07:33:19;16.60;99.90
32977;DHT22;72327;50.842;4.450;2023-09-19T07:35:46;16.60;99.90
32977;DHT22;72327;50.842;4.450;2023-09-19T07:38:12;16.70;99.90
32977;DHT22;72327;50.842;4.450;2023-09-19T07:40:37;16.80;99.90
32977;DHT22;72327;50.842;4.450;2023-09-19T07:43:03;16.90;99.90
32977;DHT22;72327;50.842;4.450;2023-09-19T07:45:30;17.00;99.90
32977;DHT22;72327;50.842;4.450;2023-09-19T07:47:56;17.00;99.90
32977;DHT22;72327;50.842;4.450;2023-09-19T07:50:23;16.90;99.90
32977;DHT22;72327;50.842;4.450;2023-09-19T07:52:50;17.00;99.90
32977;DHT22;72327;50.842;4.450;2023-09-19T07:55:18;17.00;99.90
32977;DHT22;72327;50.842;4.450;2023-09-19T07:57:46;17.10;99.90
32977;DHT22;72327;50.842;4.450;2023-09-19T08:00:12;17.30;99.90
32977;DHT22;72327;50.842;4.450;2023-09-19T08:02:39;17.30;99.90
32977;DHT22;72327;50.842;4.450;2023-09-19T08:05:06;17.50;99.90
32977;DHT22;72327;50.842;4.450;2023-09-19T08:07:35;17.50;99.90
32977;DHT22;72327;50.842;4.450;2023-09-19T08:10:02;17.50;99.90
32977;DHT22;72327;50.842;4.450;2023-09-19T08:12:28;17.60;99.90
32977;DHT22;72327;50.842;4.450;2023-09-19T08:14:55;17.70;99.90
32977;DHT22;72327;50.842;4.450;2023-09-19T08:17:21;17.80;99.90
32977;DHT22;72327;50.842;4.450;2023-09-19T08:19:48;17.90;99.90
32977;DHT22;72327;50.842;4.450;2023-09-19T08:22:14;17.90;99.90
32977;DHT22;72327;50.842;4.450;2023-09-19T08:24:42;18.00;99.90
32977;DHT22;72327;50.842;4.450;2023-09-19T08:27:08;18.10;99.90
32977;DHT22;72327;50.842;4.450;2023-09-19T08:29:35;18.10;99.90
32977;DHT22;72327;50.842;4.450;2023-09-19T08:32:01;18.10;99.90
32977;DHT22;72327;50.842;4.450;2023-09-19T08:34:27;18.00;99.90
32977;DHT22;72327;50.842;4.450;2023-09-19T08:36:54;18.10;99.90
32977;DHT22;72327;50.842;4.450;2023-09-19T08:39:23;18.10;99.90
32977;DHT22;72327;50.842;4.450;2023-09-19T08:41:49;18.20;99.90
32977;DHT22;72327;50.842;4.450;2023-09-19T08:44:15;18.30;99.90
32977;DHT22;72327;50.842;4.450;2023-09-19T08:46:41;18.30;99.90
32977;DHT22;72327;50.842;4.450;2023-09-19T08:49:27;18.40;99.90
32977;DHT22;72327;50.842;4.450;2023-09-19T08:52:14;18.50;99.90
32977;DHT22;72327;50.842;4.450;2023-09-19T08:54:41;18.50;99.90
32977;DHT22;72327;50.842;4.450;2023-09-19T08:57:09;18.60;99.90
32977;DHT22;72327;50.842;4.450;2023-09-19T08:59:39;18.80;99.90
32977;DHT22;72327;50.842;4.450;2023-09-19T09:02:14;18.80;99.90
32977;DHT22;72327;50.842;4.450;2023-09-19T09:04:41;18.90;99.90
32977;DHT22;72327;50.842;4.450;2023-09-19T09:07:12;19.00;99.90
32977;DHT22;72327;50.842;4.450;2023-09-19T09:09:42;19.10;99.90
32977;DHT22;72327;50.842;4.450;2023-09-19T09:12:11;19.40;99.90
32977;DHT22;72327;50.842;4.450;2023-09-19T09:14:39;19.40;99.90
32977;DHT22;72327;50.842;4.450;2023-09-19T09:17:05;19.60;99.90
32977;DHT22;72327;50.842;4.450;2023-09-19T09:19:31;19.50;99.90
32977;DHT22;72327;50.842;4.450;2023-09-19T09:22:10;19.70;99.90
32977;DHT22;72327;50.842;4.450;2023-09-19T09:24:37;19.90;99.90
32977;DHT22;72327;50.842;4.450;2023-09-19T09:27:15;20.00;99.90
32977;DHT22;72327;50.842;4.450;2023-09-19T09:29:45;20.10;99.90
32977;DHT22;72327;50.842;4.450;2023-09-19T09:32:27;20.30;99.90
32977;DHT22;72327;50.842;4.450;2023-09-19T09:34:59;20.50;99.90
32977;DHT22;72327;50.842;4.450;2023-09-19T09:37:25;20.50;99.90
32977;DHT22;72327;50.842;4.450;2023-09-19T09:39:56;20.50;99.90
32977;DHT22;72327;50.842;4.450;2023-09-19T09:42:36;20.50;99.90
32977;DHT22;72327;50.842;4.450;2023-09-19T09:45:16;20.60;99.90
32977;DHT22;72327;50.842;4.450;2023-09-19T09:48:02;20.50;99.90
32977;DHT22;72327;50.842;4.450;2023-09-19T09:50:47;20.50;99.90
32977;DHT22;72327;50.842;4.450;2023-09-19T09:53:26;20.50;99.90
32977;DHT22;72327;50.842;4.450;2023-09-19T09:58:25;20.60;99.90
32977;DHT22;72327;50.842;4.450;2023-09-19T10:00:57;20.30;99.90
32977;DHT22;72327;50.842;4.450;2023-09-19T10:03:34;20.20;99.90
32977;DHT22;72327;50.842;4.450;2023-09-19T10:06:06;20.10;99.90
32977;DHT22;72327;50.842;4.450;2023-09-19T10:08:36;20.10;99.90
32977;DHT22;72327;50.842;4.450;2023-09-19T10:11:15;20.00;99.90
32977;DHT22;72327;50.842;4.450;2023-09-19T10:13:42;20.00;99.90
32977;DHT22;72327;50.842;4.450;2023-09-19T10:16:12;19.90;99.90
32977;DHT22;72327;50.842;4.450;2023-09-19T10:18:41;19.80;99.90
32977;DHT22;72327;50.842;4.450;2023-09-19T10:21:09;19.70;99.90
32977;DHT22;72327;50.842;4.450;2023-09-19T10:23:36;19.70;99.90
32977;DHT22;72327;50.842;4.450;2023-09-19T10:26:04;19.60;99.90
32977;DHT22;72327;50.842;4.450;2023-09-19T10:28:30;19.50;99.90
32977;DHT22;72327;50.842;4.450;2023-09-19T10:30:57;19.50;99.90
32977;DHT22;72327;50.842;4.450;2023-09-19T10:33:25;19.50;99.90
32977;DHT22;72327;50.842;4.450;2023-09-19T10:35:51;19.50;99.90
32977;DHT22;72327;50.842;4.450;2023-09-19T10:38:23;19.50;99.90
32977;DHT22;72327;50.842;4.450;2023-09-19T10:40:51;19.50;99.90
32977;DHT22;72327;50.842;4.450;2023-09-19T10:43:19;19.50;99.90
32977;DHT22;72327;50.842;4.450;2023-09-19T10:45:47;19.50;99.90
32977;DHT22;72327;50.842;4.450;2023-09-19T10:48:15;19.50;99.90
32977;DHT22;72327;50.842;4.450;2023-09-19T10:53:26;19.60;99.90
32977;DHT22;72327;50.842;4.450;2023-09-19T10:55:57;19.60;99.90
32977;DHT22;72327;50.842;4.450;2023-09-19T10:58:31;19.60;99.90
32977;DHT22;72327;50.842;4.450;2023-09-19T11:01:05;19.70;99.90
32977;DHT22;72327;50.842;4.450;2023-09-19T11:03:32;19.80;99.90
32977;DHT22;72327;50.842;4.450;2023-09-19T11:08:50;20.00;99.90
32977;DHT22;72327;50.842;4.450;2023-09-19T11:30:38;20.90;99.90
32977;DHT22;72327;50.842;4.450;2023-09-19T11:35:59;21.40;99.90
32977;DHT22;72327;50.842;4.450;2023-09-19T11:49:18;21.80;99.90
32977;DHT22;72327;50.842;4.450;2023-09-19T11:51:50;21.90;99.90
32977;DHT22;72327;50.842;4.450;2023-09-19T11:54:20;21.90;99.90
32977;DHT22;72327;50.842;4.450;2023-09-19T11:56:54;22.20;99.90
32977;DHT22;72327;50.842;4.450;2023-09-19T11:59:24;22.30;99.90
32977;DHT22;72327;50.842;4.450;2023-09-19T12:01:54;22.30;99.90
32977;DHT22;72327;50.842;4.450;2023-09-19T12:04:37;22.40;99.90
32977;DHT22;72327;50.842;4.450;2023-09-19T12:07:04;22.50;99.90
32977;DHT22;72327;50.842;4.450;2023-09-19T12:09:31;22.50;99.90
32977;DHT22;72327;50.842;4.450;2023-09-19T12:11:57;22.50;99.80
32977;DHT22;72327;50.842;4.450;2023-09-19T12:14:24;22.70;99.80
32977;DHT22;72327;50.842;4.450;2023-09-19T12:16:55;22.60;99.50
32977;DHT22;72327;50.842;4.450;2023-09-19T12:19:21;22.60;99.70
32977;DHT22;72327;50.842;4.450;2023-09-19T12:22:01;22.50;99.70
32977;DHT22;72327;50.842;4.450;2023-09-19T12:24:32;22.40;99.80
32977;DHT22;72327;50.842;4.450;2023-09-19T12:27:05;22.50;99.80
32977;DHT22;72327;50.842;4.450;2023-09-19T12:29:41;22.40;99.90
32977;DHT22;72327;50.842;4.450;2023-09-19T12:32:07;22.60;99.90
32977;DHT22;72327;50.842;4.450;2023-09-19T12:34:33;22.40;99.70
32977;DHT22;72327;50.842;4.450;2023-09-19T12:37:14;22.30;99.90
32977;DHT22;72327;50.842;4.450;2023-09-19T12:39:50;22.40;99.80
32977;DHT22;72327;50.842;4.450;2023-09-19T12:42:22;22.50;99.60
32977;DHT22;72327;50.842;4.450;2023-09-19T12:44:49;22.20;99.90
32977;DHT22;72327;50.842;4.450;2023-09-19T12:47:20;22.00;99.90
32977;DHT22;72327;50.842;4.450;2023-09-19T12:50:14;22.20;99.90
32977;DHT22;72327;50.842;4.450;2023-09-19T12:52:50;22.50;99.90
32977;DHT22;72327;50.842;4.450;2023-09-19T12:55:26;22.50;99.90
32977;DHT22;72327;50.842;4.450;2023-09-19T12:58:12;22.70;99.90
32977;DHT22;72327;50.842;4.450;2023-09-19T13:00:42;22.90;99.80
32977;DHT22;72327;50.842;4.450;2023-09-19T13:03:18;23.10;99.50
32977;DHT22;72327;50.842;4.450;2023-09-19T13:06:03;23.20;99.80
32977;DHT22;72327;50.842;4.450;2023-09-19T13:08:37;22.90;99.90
32977;DHT22;72327;50.842;4.450;2023-09-19T13:11:14;23.00;99.60
32977;DHT22;72327;50.842;4.450;2023-09-19T13:13:43;23.20;99.60
32977;DHT22;72327;50.842;4.450;2023-09-19T13:16:10;23.20;99.50
32977;DHT22;72327;50.842;4.450;2023-09-19T13:18:57;23.30;99.50
32977;DHT22;72327;50.842;4.450;2023-09-19T13:21:33;23.40;99.50
32977;DHT22;72327;50.842;4.450;2023-09-19T13:26:46;23.10;99.80
32977;DHT22;72327;50.842;4.450;2023-09-19T13:29:12;23.60;99.50
32977;DHT22;72327;50.842;4.450;2023-09-19T13:31:37;23.70;98.80
32977;DHT22;72327;50.842;4.450;2023-09-19T13:34:07;23.80;98.70
32977;DHT22;72327;50.842;4.450;2023-09-19T13:36:32;24.10;98.30
32977;DHT22;72327;50.842;4.450;2023-09-19T13:38:59;24.10;98.40
32977;DHT22;72327;50.842;4.450;2023-09-19T13:41:25;24.10;98.40
32977;DHT22;72327;50.842;4.450;2023-09-19T13:43:51;24.30;98.10
32977;DHT22;72327;50.842;4.450;2023-09-19T13:46:18;24.10;98.20
32977;DHT22;72327;50.842;4.450;2023-09-19T13:48:51;24.10;98.30
32977;DHT22;72327;50.842;4.450;2023-09-19T13:51:17;24.00;97.80
32977;DHT22;72327;50.842;4.450;2023-09-19T13:53:44;23.70;98.10
32977;DHT22;72327;50.842;4.450;2023-09-19T13:56:10;23.60;98.50
32977;DHT22;72327;50.842;4.450;2023-09-19T13:58:36;23.60;98.70
32977;DHT22;72327;50.842;4.450;2023-09-19T14:01:02;23.70;98.70
32977;DHT22;72327;50.842;4.450;2023-09-19T14:03:28;23.70;98.60
32977;DHT22;72327;50.842;4.450;2023-09-19T14:05:54;23.80;98.50
32977;DHT22;72327;50.842;4.450;2023-09-19T14:08:20;23.60;98.70
32977;DHT22;72327;50.842;4.450;2023-09-19T14:10:46;23.30;98.50
32977;DHT22;72327;50.842;4.450;2023-09-19T14:13:11;23.00;98.90
32977;DHT22;72327;50.842;4.450;2023-09-19T14:15:38;22.80;99.10
32977;DHT22;72327;50.842;4.450;2023-09-19T14:18:04;22.70;99.30
32977;DHT22;72327;50.842;4.450;2023-09-19T14:20:30;22.40;99.50
32977;DHT22;72327;50.842;4.450;2023-09-19T14:22:57;22.30;99.90
32977;DHT22;72327;50.842;4.450;2023-09-19T14:25:24;22.50;99.70
32977;DHT22;72327;50.842;4.450;2023-09-19T14:27:50;22.60;99.50
32977;DHT22;72327;50.842;4.450;2023-09-19T14:30:17;22.60;99.80
32977;DHT22;72327;50.842;4.450;2023-09-19T14:32:42;23.00;99.40
32977;DHT22;72327;50.842;4.450;2023-09-19T14:35:09;23.10;99.00
32977;DHT22;72327;50.842;4.450;2023-09-19T14:37:35;23.10;99.20
32977;DHT22;72327;50.842;4.450;2023-09-19T14:40:01;23.00;99.00
32977;DHT22;72327;50.842;4.450;2023-09-19T14:42:32;23.10;98.60
32977;DHT22;72327;50.842;4.450;2023-09-19T14:44:58;23.00;98.70
32977;DHT22;72327;50.842;4.450;2023-09-19T14:47:23;22.80;99.10
32977;DHT22;72327;50.842;4.450;2023-09-19T14:49:49;22.60;99.60
32977;DHT22;72327;50.842;4.450;2023-09-19T14:52:14;22.50;99.90
32977;DHT22;72327;50.842;4.450;2023-09-19T14:54:41;22.40;99.60
32977;DHT22;72327;50.842;4.450;2023-09-19T14:57:07;22.50;99.80
32977;DHT22;72327;50.842;4.450;2023-09-19T14:59:34;22.80;99.90
32977;DHT22;72327;50.842;4.450;2023-09-19T15:02:06;22.90;99.70
32977;DHT22;72327;50.842;4.450;2023-09-19T15:04:32;22.80;99.90
32977;DHT22;72327;50.842;4.450;2023-09-19T15:06:59;22.80;99.70
32977;DHT22;72327;50.842;4.450;2023-09-19T15:09:25;22.60;99.60
32977;DHT22;72327;50.842;4.450;2023-09-19T15:11:55;22.40;99.80
32977;DHT22;72327;50.842;4.450;2023-09-19T15:14:21;22.60;99.50
32977;DHT22;72327;50.842;4.450;2023-09-19T15:16:48;22.80;99.30
32977;DHT22;72327;50.842;4.450;2023-09-19T15:19:14;22.80;99.10
32977;DHT22;72327;50.842;4.450;2023-09-19T15:21:40;22.80;99.20
32977;DHT22;72327;50.842;4.450;2023-09-19T15:24:06;22.80;99.60
32977;DHT22;72327;50.842;4.450;2023-09-19T15:26:36;22.60;99.50
32977;DHT22;72327;50.842;4.450;2023-09-19T15:29:05;22.50;99.90
32977;DHT22;72327;50.842;4.450;2023-09-19T15:31:31;22.50;99.90
32977;DHT22;72327;50.842;4.450;2023-09-19T15:33:57;22.40;99.90
32977;DHT22;72327;50.842;4.450;2023-09-19T15:36:23;22.30;99.90
32977;DHT22;72327;50.842;4.450;2023-09-19T15:39:00;22.10;99.90
32977;DHT22;72327;50.842;4.450;2023-09-19T15:41:31;21.90;99.90
32977;DHT22;72327;50.842;4.450;2023-09-19T15:43:57;21.60;99.90
32977;DHT22;72327;50.842;4.450;2023-09-19T15:46:27;21.50;99.90
32977;DHT22;72327;50.842;4.450;2023-09-19T15:48:57;21.40;99.90
32977;DHT22;72327;50.842;4.450;2023-09-19T15:51:23;21.40;99.90
32977;DHT22;72327;50.842;4.450;2023-09-19T15:53:56;21.50;99.90
32977;DHT22;72327;50.842;4.450;2023-09-19T15:56:22;21.60;99.90
32977;DHT22;72327;50.842;4.450;2023-09-19T15:58:57;21.50;99.90
32977;DHT22;72327;50.842;4.450;2023-09-19T16:01:27;21.30;99.90
32977;DHT22;72327;50.842;4.450;2023-09-19T16:03:54;21.30;99.90
32977;DHT22;72327;50.842;4.450;2023-09-19T16:06:23;21.10;99.90
32977;DHT22;72327;50.842;4.450;2023-09-19T16:08:56;21.00;99.90
32977;DHT22;72327;50.842;4.450;2023-09-19T16:11:26;21.00;99.90
32977;DHT22;72327;50.842;4.450;2023-09-19T16:13:52;21.10;99.90
32977;DHT22;72327;50.842;4.450;2023-09-19T16:16:22;21.10;99.90
32977;DHT22;72327;50.842;4.450;2023-09-19T16:18:53;21.10;99.90
32977;DHT22;72327;50.842;4.450;2023-09-19T16:21:23;21.10;99.90
32977;DHT22;72327;50.842;4.450;2023-09-19T16:23:50;21.00;99.90
32977;DHT22;72327;50.842;4.450;2023-09-19T16:26:17;21.00;99.90
32977;DHT22;72327;50.842;4.450;2023-09-19T16:28:49;21.00;99.90
32977;DHT22;72327;50.842;4.450;2023-09-19T16:31:15;20.90;99.90
32977;DHT22;72327;50.842;4.450;2023-09-19T16:33:43;20.80;99.90
32977;DHT22;72327;50.842;4.450;2023-09-19T16:36:14;20.80;99.90
32977;DHT22;72327;50.842;4.450;2023-09-19T16:38:41;20.70;99.90
32977;DHT22;72327;50.842;4.450;2023-09-19T16:41:07;20.50;99.90
32977;DHT22;72327;50.842;4.450;2023-09-19T16:43:37;20.50;99.90
32977;DHT22;72327;50.842;4.450;2023-09-19T16:46:04;20.40;99.90